Time;durP1;ratioP1;P1;durP2;ratioP2;P2;SDS_P1;SDS_P2;PMS_P1;PMS_P2;Temp;Humidity;BMP_temperature;BMP_pressure;BME280_temperature;BME280_humidity;BME280_pressure;Samples;Min_cycle;Max_cycle;Signal;HPM_P1;HPM_P2
2022/05/14 00:01:58;;;;;;;12.95;3.88;;;11.80;99.90;;;;;;5032173;28;20095;-71
2022/05/14 00:04:24;;;;;;;11.68;4.28;;;11.70;99.90;;;;;;5032352;28;20033;-71
2022/05/14 00:06:51;;;;;;;9.00;4.10;;;11.70;99.90;;;;;;5015576;28;20355;-71
2022/05/14 00:09:17;;;;;;;12.45;4.20;;;11.80;99.90;;;;;;5032400;28;20041;-71
2022/05/14 00:14:26;;;;;;;13.15;3.90;;;11.80;99.90;;;;;;5032058;28;20421;-71
2022/05/14 00:16:52;;;;;;;16.48;4.72;;;11.80;99.90;;;;;;5015546;28;20033;-71
2022/05/14 00:19:18;;;;;;;10.82;3.85;;;11.80;99.90;;;;;;5031995;28;20029;-71
2022/05/14 00:21:44;;;;;;;14.10;3.90;;;11.80;99.90;;;;;;5031853;28;20511;-71
2022/05/14 00:24:10;;;;;;;14.60;3.97;;;11.70;99.90;;;;;;5015528;28;20033;-71
2022/05/14 00:26:37;;;;;;;11.90;3.72;;;11.70;99.90;;;;;;5031835;28;20037;-71
2022/05/14 00:29:04;;;;;;;12.10;4.13;;;11.70;99.90;;;;;;5031857;28;20193;-71
2022/05/14 00:31:29;;;;;;;11.63;3.60;;;11.80;99.90;;;;;;5031836;28;20484;-71
2022/05/14 00:33:55;;;;;;;12.98;3.72;;;11.80;99.90;;;;;;5031834;28;20073;-71
2022/05/14 00:36:21;;;;;;;9.57;3.80;;;11.80;99.90;;;;;;5031704;28;20128;-71
2022/05/14 00:38:47;;;;;;;14.18;3.55;;;11.80;99.90;;;;;;5032001;28;20041;-71
2022/05/14 00:41:12;;;;;;;10.07;2.90;;;11.80;99.90;;;;;;5032036;28;20564;-71
2022/05/14 00:43:53;;;;;;;14.82;4.20;;;11.70;99.90;;;;;;5015256;28;20474;-71
2022/05/14 00:46:35;;;;;;;12.05;3.40;;;11.70;99.90;;;;;;5031663;28;20504;-71
2022/05/14 00:49:01;;;;;;;11.90;3.35;;;11.70;99.90;;;;;;5032044;28;20401;-71
2022/05/14 00:51:28;;;;;;;10.90;3.17;;;11.70;99.90;;;;;;5031943;28;20038;-71
2022/05/14 00:53:59;;;;;;;13.57;3.60;;;11.60;99.90;;;;;;5015481;28;20146;-71
2022/05/14 00:56:29;;;;;;;15.95;3.55;;;11.70;99.90;;;;;;5031589;28;20102;-71
2022/05/14 00:59:07;;;;;;;15.98;3.72;;;11.70;99.90;;;;;;5015454;28;20049;-71
2022/05/14 01:01:34;;;;;;;12.52;3.35;;;11.80;99.90;;;;;;5031620;28;20045;-71
2022/05/14 01:03:59;;;;;;;13.32;3.55;;;11.80;99.90;;;;;;5015001;28;20034;-71
2022/05/14 01:06:28;;;;;;;15.38;3.78;;;11.80;99.90;;;;;;5031772;28;20115;-71
2022/05/14 01:08:54;;;;;;;10.57;3.45;;;11.80;99.90;;;;;;5031750;28;20065;-71
2022/05/14 01:11:20;;;;;;;12.38;3.35;;;11.90;99.90;;;;;;5031487;28;20552;-71
2022/05/14 01:13:46;;;;;;;12.07;3.00;;;11.90;99.90;;;;;;5031737;28;20050;-71
2022/05/14 01:16:12;;;;;;;13.52;3.42;;;11.90;99.90;;;;;;5033094;28;20129;-71
2022/05/14 01:18:38;;;;;;;14.60;3.75;;;12.00;99.90;;;;;;5035248;28;20069;-71
2022/05/14 01:21:18;;;;;;;12.80;3.38;;;12.00;99.90;;;;;;5035177;28;20041;-71
2022/05/14 01:26:43;;;;;;;11.88;3.38;;;12.00;99.90;;;;;;5035034;28;20041;-71
2022/05/14 01:29:29;;;;;;;15.30;4.00;;;12.00;99.90;;;;;;5035300;28;20034;-71
2022/05/14 01:31:55;;;;;;;11.15;3.53;;;12.00;99.90;;;;;;5034913;28;20045;-71
2022/05/14 01:34:32;;;;;;;9.85;3.58;;;12.10;99.90;;;;;;5035187;28;20052;-71
2022/05/14 01:36:58;;;;;;;12.02;3.20;;;12.10;99.90;;;;;;5034910;28;20037;-71
2022/05/14 01:39:25;;;;;;;16.50;3.85;;;12.00;99.90;;;;;;5018343;28;20037;-71
2022/05/14 01:41:51;;;;;;;12.85;3.10;;;12.10;99.90;;;;;;5034732;28;20038;-71
2022/05/14 01:44:17;;;;;;;11.50;3.58;;;12.00;99.90;;;;;;5034808;28;20077;-71
2022/05/14 01:46:43;;;;;;;13.98;3.50;;;12.10;99.90;;;;;;5034712;28;20081;-71
2022/05/14 01:49:09;;;;;;;17.20;4.00;;;12.10;99.90;;;;;;5018512;28;20084;-71
2022/05/14 01:51:35;;;;;;;10.93;3.17;;;12.10;99.90;;;;;;5034934;28;20041;-71
2022/05/14 01:54:00;;;;;;;12.13;3.40;;;12.10;99.90;;;;;;5034833;28;20045;-71
2022/05/14 01:56:26;;;;;;;13.82;3.47;;;12.10;99.90;;;;;;5034780;28;20045;-71
2022/05/14 01:58:52;;;;;;;13.65;3.40;;;12.10;99.90;;;;;;5034550;28;20508;-71
2022/05/14 02:01:30;;;;;;;11.05;3.28;;;12.10;99.90;;;;;;5034472;28;20048;-71
2022/05/14 02:03:58;;;;;;;17.25;4.18;;;12.00;99.90;;;;;;5034364;28;20037;-71
2022/05/14 02:06:26;;;;;;;14.68;3.70;;;12.00;99.90;;;;;;5034170;28;20164;-71
2022/05/14 02:08:52;;;;;;;11.30;3.17;;;11.90;99.90;;;;;;5017859;28;20057;-71
2022/05/14 02:11:18;;;;;;;10.15;3.17;;;11.90;99.90;;;;;;5034242;28;20034;-71
2022/05/14 02:13:45;;;;;;;13.68;4.07;;;11.90;99.90;;;;;;5034193;28;20050;-71
2022/05/14 02:16:10;;;;;;;9.98;3.25;;;11.90;99.90;;;;;;5034109;28;20508;-71
2022/05/14 02:18:37;;;;;;;14.25;4.05;;;11.80;99.90;;;;;;5017874;28;20041;-71
2022/05/14 02:21:03;;;;;;;18.20;4.10;;;11.80;99.90;;;;;;5034069;28;20076;-71
2022/05/14 02:23:30;;;;;;;9.55;3.30;;;11.80;99.90;;;;;;5033968;28;20033;-71
2022/05/14 02:25:56;;;;;;;16.60;4.10;;;11.70;99.90;;;;;;5033921;28;20463;-71
2022/05/14 02:28:21;;;;;;;15.25;3.58;;;11.70;99.90;;;;;;5033001;28;20080;-71
2022/05/14 02:30:47;;;;;;;13.40;3.97;;;11.70;99.90;;;;;;5034133;28;20444;-71
2022/05/14 02:33:13;;;;;;;17.45;4.53;;;11.60;99.90;;;;;;5033865;28;20497;-71
2022/05/14 02:35:40;;;;;;;15.82;4.10;;;11.60;99.90;;;;;;5033731;28;20079;-71
2022/05/14 02:38:06;;;;;;;14.98;3.53;;;11.60;99.90;;;;;;5033934;28;20489;-71
2022/05/14 02:40:32;;;;;;;16.58;4.40;;;11.60;99.90;;;;;;5033999;28;20087;-71
2022/05/14 02:42:57;;;;;;;11.65;3.53;;;11.50;99.90;;;;;;5033904;28;20482;-71
2022/05/14 02:45:23;;;;;;;17.45;4.10;;;11.50;99.90;;;;;;5033796;28;20044;-71
2022/05/14 02:47:49;;;;;;;13.55;4.10;;;11.50;99.90;;;;;;5033562;28;20532;-71
2022/05/14 02:50:15;;;;;;;13.30;3.85;;;11.50;99.90;;;;;;5033518;28;20044;-71
2022/05/14 02:52:41;;;;;;;16.80;4.53;;;11.50;99.90;;;;;;5033457;28;20038;-71
2022/05/14 02:55:07;;;;;;;12.20;4.20;;;11.50;99.90;;;;;;5016954;28;20086;-71
2022/05/14 02:57:34;;;;;;;14.18;3.75;;;11.40;99.90;;;;;;5033381;28;20148;-70
2022/05/14 02:59:59;;;;;;;19.77;4.95;;;11.40;99.90;;;;;;5033345;28;20048;-70
2022/05/14 03:02:25;;;;;;;14.38;4.18;;;11.30;99.90;;;;;;5016797;28;20045;-71
2022/05/14 03:04:50;;;;;;;16.25;4.38;;;11.30;99.90;;;;;;5033096;28;20044;-71
2022/05/14 03:07:16;;;;;;;10.98;3.75;;;11.30;99.90;;;;;;5033272;28;20033;-71
2022/05/14 03:09:42;;;;;;;17.60;5.22;;;11.30;99.90;;;;;;5033159;28;20033;-71
2022/05/14 03:12:10;;;;;;;17.83;4.78;;;11.30;99.90;;;;;;5033137;28;20131;-71
2022/05/14 03:14:37;;;;;;;17.63;4.55;;;11.30;99.90;;;;;;5032968;28;20421;-71
2022/05/14 03:17:03;;;;;;;13.73;4.43;;;11.30;99.90;;;;;;5016544;28;20038;-71
2022/05/14 03:19:29;;;;;;;14.80;4.65;;;11.20;99.90;;;;;;5033228;28;20174;-71
2022/05/14 03:21:55;;;;;;;18.55;4.35;;;11.20;99.90;;;;;;5032845;28;20501;-71
2022/05/14 03:24:20;;;;;;;18.67;5.70;;;11.20;99.90;;;;;;5033150;28;20034;-71
2022/05/14 03:26:46;;;;;;;13.45;5.10;;;11.10;99.90;;;;;;5032740;28;20405;-71
2022/05/14 03:29:12;;;;;;;20.58;5.28;;;11.10;99.90;;;;;;5032783;28;20037;-71
2022/05/14 03:31:40;;;;;;;22.02;5.35;;;11.10;99.90;;;;;;5032746;28;20040;-71
2022/05/14 03:34:06;;;;;;;18.05;4.80;;;11.10;99.90;;;;;;5033007;28;20049;-71
2022/05/14 03:36:33;;;;;;;18.90;5.72;;;11.10;99.90;;;;;;5032615;28;20509;-71
2022/05/14 03:38:59;;;;;;;18.73;5.28;;;11.10;99.90;;;;;;5032308;28;20049;-71
2022/05/14 03:41:25;;;;;;;17.08;5.68;;;11.10;99.90;;;;;;5016125;28;20060;-71
2022/05/14 03:43:50;;;;;;;22.40;7.22;;;11.10;99.90;;;;;;5032517;28;20045;-71
2022/05/14 03:46:17;;;;;;;25.10;7.57;;;11.10;99.90;;;;;;5032464;28;20033;-71
2022/05/14 03:48:44;;;;;;;23.63;6.80;;;11.10;99.90;;;;;;5032488;28;20046;-71
2022/05/14 03:51:10;;;;;;;24.65;7.20;;;11.10;99.90;;;;;;5033661;28;20041;-71
2022/05/14 03:53:37;;;;;;;25.83;6.90;;;11.10;99.90;;;;;;5032374;28;20045;-71
2022/05/14 03:56:04;;;;;;;24.58;7.18;;;11.20;99.90;;;;;;5032560;28;20057;-71
2022/05/14 03:58:30;;;;;;;26.60;7.68;;;11.20;99.90;;;;;;5032949;28;20398;-71
2022/05/14 04:00:56;;;;;;;22.67;6.82;;;11.20;99.90;;;;;;5032531;28;20041;-71
2022/05/14 04:03:22;;;;;;;24.70;7.35;;;11.20;99.90;;;;;;5015729;28;20087;-71
2022/05/14 04:05:47;;;;;;;25.98;7.25;;;11.20;99.90;;;;;;5032145;28;20050;-71
2022/05/14 04:08:13;;;;;;;33.30;8.43;;;11.20;99.90;;;;;;5032130;28;20044;-71
2022/05/14 04:10:39;;;;;;;24.50;7.47;;;11.20;99.90;;;;;;5032107;28;20107;-71
2022/05/14 04:13:04;;;;;;;29.58;8.00;;;11.20;99.90;;;;;;5032091;28;20068;-71
2022/05/14 04:15:30;;;;;;;24.70;8.20;;;11.20;99.90;;;;;;5031969;28;20041;-71
2022/05/14 04:17:56;;;;;;;29.70;8.85;;;11.30;99.90;;;;;;5032258;28;20057;-71
2022/05/14 04:20:23;;;;;;;23.17;7.50;;;11.30;99.90;;;;;;5032216;28;20490;-71
2022/05/14 04:22:50;;;;;;;29.83;8.43;;;11.30;99.90;;;;;;5032062;28;20037;-71
2022/05/14 04:25:16;;;;;;;34.88;9.07;;;11.30;99.90;;;;;;5031852;28;20048;-71
2022/05/14 04:27:42;;;;;;;29.88;9.10;;;11.20;99.90;;;;;;5031900;28;20048;-71
2022/05/14 04:30:09;;;;;;;26.13;8.65;;;11.30;99.90;;;;;;5031855;28;20037;-71
2022/05/14 04:32:35;;;;;;;31.55;9.45;;;11.30;99.90;;;;;;5031864;28;20076;-71
2022/05/14 04:35:01;;;;;;;29.92;9.32;;;11.30;99.90;;;;;;5031766;28;20041;-71
2022/05/14 04:37:27;;;;;;;35.15;9.93;;;11.30;99.90;;;;;;5031782;28;20045;-71
2022/05/14 04:39:52;;;;;;;30.48;9.07;;;11.40;99.90;;;;;;5031805;28;20045;-71
2022/05/14 04:42:18;;;;;;;27.85;8.38;;;11.40;99.90;;;;;;5031698;28;20056;-71
2022/05/14 04:44:43;;;;;;;30.60;8.88;;;11.50;99.90;;;;;;5031977;28;20049;-70
2022/05/14 04:47:10;;;;;;;27.95;8.65;;;11.50;99.90;;;;;;5015429;28;20054;-70
2022/05/14 04:49:41;;;;;;;23.77;8.95;;;11.50;99.90;;;;;;5031954;28;20045;-70
2022/05/14 04:52:07;;;;;;;31.67;8.93;;;11.60;99.90;;;;;;5035030;28;20481;-70
2022/05/14 04:54:33;;;;;;;29.83;8.32;;;11.60;99.90;;;;;;5035617;28;20080;-70
2022/05/14 04:56:59;;;;;;;25.02;8.07;;;11.60;99.90;;;;;;5035651;28;20073;-71
2022/05/14 04:59:24;;;;;;;34.13;9.73;;;11.60;99.90;;;;;;5035556;28;20038;-71
2022/05/14 05:04:38;;;;;;;27.27;9.18;;;11.60;99.90;;;;;;5035627;28;20049;-71
2022/05/14 05:07:03;;;;;;;29.38;9.88;;;11.70;99.90;;;;;;5035794;28;20379;-71
2022/05/14 05:09:29;;;;;;;32.80;9.95;;;11.70;99.90;;;;;;5019170;28;20482;-71
2022/05/14 05:11:55;;;;;;;34.58;10.38;;;11.80;99.90;;;;;;5035380;28;20513;-71
2022/05/14 05:14:20;;;;;;;27.65;8.98;;;11.80;99.90;;;;;;5035313;28;20045;-71
2022/05/14 05:16:46;;;;;;;35.88;11.07;;;11.90;99.90;;;;;;5035254;28;20125;-71
2022/05/14 05:19:11;;;;;;;34.47;10.43;;;11.90;99.90;;;;;;5035202;28;20042;-71
2022/05/14 05:21:37;;;;;;;38.72;10.63;;;12.00;99.90;;;;;;5035177;28;20045;-71
2022/05/14 05:24:05;;;;;;;33.67;10.40;;;12.00;99.90;;;;;;5035114;28;20087;-71
2022/05/14 05:26:32;;;;;;;32.15;10.73;;;12.10;99.90;;;;;;5018818;28;20037;-71
2022/05/14 05:28:57;;;;;;;35.20;10.70;;;12.10;99.90;;;;;;5018655;28;20038;-71
2022/05/14 05:31:23;;;;;;;33.42;10.43;;;12.20;99.90;;;;;;5035083;28;20048;-71
2022/05/14 05:33:49;;;;;;;36.35;10.23;;;12.20;99.90;;;;;;5035247;28;20054;-71
2022/05/14 05:36:14;;;;;;;30.40;10.07;;;12.30;99.90;;;;;;5036405;28;20041;-71
2022/05/14 05:38:40;;;;;;;32.80;10.10;;;12.30;99.90;;;;;;5035140;28;20048;-70
2022/05/14 05:41:05;;;;;;;34.53;10.98;;;12.40;99.90;;;;;;5035127;28;20456;-70
2022/05/14 05:43:31;;;;;;;30.38;9.57;;;12.40;99.90;;;;;;5034749;28;20049;-70
2022/05/14 05:45:57;;;;;;;36.92;10.70;;;12.50;99.90;;;;;;5034711;28;20041;-71
2022/05/14 05:48:23;;;;;;;31.33;9.82;;;12.60;99.90;;;;;;5018220;28;20041;-70
2022/05/14 05:50:49;;;;;;;38.20;10.20;;;12.60;99.90;;;;;;5034661;28;20410;-70
2022/05/14 05:53:16;;;;;;;35.00;9.80;;;12.70;99.90;;;;;;5018472;28;20037;-70
2022/05/14 05:58:27;;;;;;;39.47;10.85;;;12.80;99.90;;;;;;5035606;28;20041;-70
2022/05/14 06:00:53;;;;;;;33.63;10.60;;;12.80;99.90;;;;;;5034496;28;20460;-71
2022/05/14 06:03:19;;;;;;;35.15;10.30;;;12.90;99.90;;;;;;5034131;28;20038;-70
2022/05/14 06:05:44;;;;;;;32.47;9.45;;;13.00;99.90;;;;;;5034516;28;20112;-70
2022/05/14 06:08:13;;;;;;;34.30;9.77;;;13.00;99.90;;;;;;5034406;28;20034;-71
2022/05/14 06:10:39;;;;;;;32.67;9.25;;;13.10;99.90;;;;;;5017773;28;20128;-70
2022/05/14 06:13:08;;;;;;;34.80;9.63;;;13.10;99.90;;;;;;5034280;28;20041;-70
2022/05/14 06:15:34;;;;;;;32.45;8.95;;;13.20;99.90;;;;;;5034195;28;20214;-71
2022/05/14 06:18:09;;;;;;;30.25;9.00;;;13.30;99.90;;;;;;5034443;28;20044;-71
2022/05/14 06:20:38;;;;;;;34.17;8.63;;;13.40;99.90;;;;;;5034153;28;20087;-70
2022/05/14 06:23:04;;;;;;;34.40;8.50;;;13.50;99.90;;;;;;5017508;28;20516;-70
2022/05/14 06:25:29;;;;;;;34.75;8.65;;;13.60;99.90;;;;;;5034139;28;20041;-72
2022/05/14 06:27:55;;;;;;;26.55;7.00;;;13.70;99.90;;;;;;5033997;28;20049;-72
2022/05/14 06:30:20;;;;;;;27.98;6.30;;;13.80;99.90;;;;;;5033937;28;20041;-72
2022/05/14 06:32:46;;;;;;;24.45;6.22;;;13.90;99.90;;;;;;5033958;28;20045;-72
2022/05/14 06:35:12;;;;;;;31.17;7.07;;;14.00;99.90;;;;;;5033806;28;20052;-72
2022/05/14 06:37:37;;;;;;;28.08;6.78;;;14.20;99.90;;;;;;5034114;28;20038;-72
2022/05/14 06:40:04;;;;;;;29.15;6.50;;;14.30;99.90;;;;;;5017300;28;20493;-72
2022/05/14 06:42:29;;;;;;;31.15;6.40;;;14.40;99.90;;;;;;5033619;28;20041;-72
2022/05/14 06:44:56;;;;;;;21.92;5.97;;;14.50;99.90;;;;;;5033643;28;20048;-72
2022/05/14 06:47:21;;;;;;;26.90;6.70;;;14.60;99.90;;;;;;5033636;28;20037;-72
2022/05/14 06:49:47;;;;;;;27.90;6.30;;;14.70;99.90;;;;;;5033964;28;20048;-72
2022/05/14 06:52:14;;;;;;;25.08;5.95;;;14.70;99.90;;;;;;5017154;28;20073;-72
2022/05/14 06:54:45;;;;;;;28.90;6.80;;;14.80;99.90;;;;;;5033659;28;20120;-72
2022/05/14 06:57:12;;;;;;;21.88;5.25;;;14.90;99.90;;;;;;5033487;28;20041;-72
2022/05/14 06:59:38;;;;;;;18.55;5.07;;;14.90;99.90;;;;;;5033531;28;20095;-72
2022/05/14 07:02:05;;;;;;;26.83;5.70;;;15.00;99.90;;;;;;5033329;28;20045;-72
2022/05/14 07:07:17;;;;;;;28.58;5.95;;;15.10;99.90;;;;;;5033777;28;20045;-72
2022/05/14 07:09:43;;;;;;;26.08;6.25;;;15.20;99.90;;;;;;5033258;28;20490;-72
2022/05/14 07:12:09;;;;;;;24.13;5.53;;;15.20;99.90;;;;;;5016743;28;20041;-72
2022/05/14 07:14:36;;;;;;;22.95;5.45;;;15.30;99.90;;;;;;5032395;28;20174;-72
2022/05/14 07:17:03;;;;;;;25.55;5.80;;;15.40;99.90;;;;;;5033065;28;20087;-72
2022/05/14 07:19:29;;;;;;;23.35;4.78;;;15.30;99.90;;;;;;5033273;28;20039;-72
2022/05/14 07:21:55;;;;;;;31.73;6.03;;;15.40;99.90;;;;;;5033155;28;20128;-72
2022/05/14 07:24:24;;;;;;;26.52;5.68;;;15.40;99.90;;;;;;5032893;28;20489;-72
2022/05/14 07:26:51;;;;;;;21.27;4.78;;;15.50;99.90;;;;;;5016611;28;20045;-72
2022/05/14 07:29:20;;;;;;;28.85;7.28;;;15.50;99.90;;;;;;5033045;28;20059;-72
2022/05/14 07:31:46;;;;;;;26.20;5.93;;;15.60;99.90;;;;;;5032805;28;20099;-72
2022/05/14 07:34:12;;;;;;;26.88;6.15;;;15.60;99.90;;;;;;5016282;28;20041;-72
2022/05/14 07:36:58;;;;;;;24.90;6.75;;;15.70;99.90;;;;;;5032680;28;20049;-72
2022/05/14 07:39:26;;;;;;;23.10;5.90;;;15.90;99.90;;;;;;5016476;28;20088;-72
2022/05/14 07:41:56;;;;;;;26.02;6.10;;;15.90;99.90;;;;;;5032760;28;20038;-72
2022/05/14 07:44:26;;;;;;;25.88;5.82;;;16.10;99.90;;;;;;5032800;28;20041;-71
2022/05/14 07:46:52;;;;;;;23.15;6.40;;;16.20;99.90;;;;;;5032457;28;20038;-72
2022/05/14 07:49:21;;;;;;;19.13;5.88;;;16.30;99.90;;;;;;5033716;28;20037;-72
2022/05/14 07:51:46;;;;;;;27.77;6.30;;;16.40;99.90;;;;;;5032450;28;20056;-72
2022/05/14 07:54:12;;;;;;;23.83;5.72;;;16.40;99.90;;;;;;5032532;28;20128;-72
2022/05/14 07:56:39;;;;;;;22.55;6.10;;;16.50;99.90;;;;;;5016119;28;20128;-72
2022/05/14 07:59:05;;;;;;;21.35;5.40;;;16.60;99.90;;;;;;5032556;28;20088;-71
2022/05/14 08:01:31;;;;;;;27.88;6.10;;;16.60;99.90;;;;;;5015786;28;20492;-71
2022/05/14 08:03:57;;;;;;;23.92;5.47;;;16.80;99.90;;;;;;5032226;28;20041;-71
2022/05/14 08:06:22;;;;;;;27.23;5.13;;;16.90;99.90;;;;;;5032032;28;20116;-71
2022/05/14 08:08:49;;;;;;;22.60;6.30;;;17.00;99.90;;;;;;5032262;28;20125;-70
2022/05/14 08:11:15;;;;;;;25.65;5.60;;;17.10;99.90;;;;;;5032367;28;20100;-70
2022/05/14 08:13:40;;;;;;;26.10;6.25;;;17.30;99.90;;;;;;5015653;28;20544;-70
2022/05/14 08:16:07;;;;;;;22.05;5.35;;;17.40;99.90;;;;;;5031968;28;20041;-70
2022/05/14 08:18:33;;;;;;;24.42;5.65;;;17.40;99.90;;;;;;5032074;28;20116;-70
2022/05/14 08:24:29;;;;;;;24.75;5.57;;;17.60;99.90;;;;;;5032071;28;20184;-70
2022/05/14 08:26:28;;;;;;;32.35;6.65;;;18.00;99.90;;;;;;5031829;28;20045;-70
2022/05/14 08:28:53;;;;;;;21.30;5.28;;;18.10;99.90;;;;;;5015477;28;20040;-71
2022/05/14 08:31:19;;;;;;;25.33;5.68;;;18.10;99.90;;;;;;5032188;28;20065;-71
2022/05/14 08:33:44;;;;;;;21.75;5.68;;;18.20;99.90;;;;;;5031868;28;20450;-71
2022/05/14 08:36:10;;;;;;;27.63;6.30;;;18.30;99.90;;;;;;5031822;28;20050;-71
2022/05/14 08:38:36;;;;;;;25.05;5.55;;;18.30;99.90;;;;;;5031871;28;20045;-71
2022/05/14 08:41:02;;;;;;;18.58;5.50;;;18.20;99.90;;;;;;5032062;28;20042;-71
2022/05/14 08:43:31;;;;;;;20.98;5.25;;;18.20;99.90;;;;;;5031688;28;20406;-71
2022/05/14 08:45:57;;;;;;;24.58;5.75;;;18.50;99.90;;;;;;5031674;28;20041;-71
2022/05/14 08:48:34;;;;;;;20.48;5.05;;;18.70;99.90;;;;;;5015346;28;20034;-71
2022/05/14 08:51:14;;;;;;;21.15;5.05;;;18.80;99.90;;;;;;5015295;28;20116;-71
2022/05/14 08:53:41;;;;;;;22.58;5.05;;;19.00;99.90;;;;;;5015514;28;20402;-71
2022/05/14 08:56:18;;;;;;;20.13;5.38;;;19.10;99.90;;;;;;5031840;28;20038;-71
2022/05/14 08:59:05;;;;;;;20.80;4.97;;;19.10;99.90;;;;;;5031853;28;20099;-71
2022/05/14 09:01:35;;;;;;;20.95;4.75;;;19.10;98.50;;;;;;5015166;28;20073;-71
2022/05/14 09:04:01;;;;;;;21.45;5.00;;;19.00;99.90;;;;;;5031569;28;20037;-71
2022/05/14 09:06:27;;;;;;;25.98;6.25;;;18.90;99.90;;;;;;5032584;28;20045;-71
2022/05/14 09:08:52;;;;;;;26.88;5.07;;;18.70;99.90;;;;;;5031550;28;20517;-71
2022/05/14 09:11:27;;;;;;;24.90;5.20;;;18.60;99.90;;;;;;5031527;28;20056;-71
2022/05/14 09:13:59;;;;;;;23.48;5.07;;;18.40;99.70;;;;;;5031530;28;20057;-71
2022/05/14 09:16:36;;;;;;;18.80;5.13;;;18.30;99.90;;;;;;5031472;28;20536;-71
2022/05/14 09:19:13;;;;;;;24.13;5.82;;;18.30;99.90;;;;;;5015280;28;20104;-71
2022/05/14 09:21:55;;;;;;;25.88;4.68;;;18.60;99.90;;;;;;5031490;28;20045;-71
2022/05/14 09:24:26;;;;;;;19.48;5.15;;;18.90;99.90;;;;;;5031434;28;20116;-71
2022/05/14 09:26:55;;;;;;;27.08;5.80;;;18.90;99.90;;;;;;5031563;28;20448;-71
2022/05/14 09:29:33;;;;;;;22.73;5.22;;;18.90;99.90;;;;;;5031707;28;20100;-71
2022/05/14 09:32:05;;;;;;;17.75;4.55;;;18.90;99.90;;;;;;5031689;28;20072;-71
2022/05/14 09:34:32;;;;;;;22.23;5.20;;;18.90;99.90;;;;;;5015445;28;20029;-71
2022/05/14 09:37:11;;;;;;;27.73;5.95;;;18.80;99.90;;;;;;5032784;28;20049;-71
2022/05/14 09:39:37;;;;;;;25.30;6.22;;;18.70;99.90;;;;;;5035520;28;20050;-71
2022/05/14 09:42:21;;;;;;;21.60;5.18;;;18.70;99.90;;;;;;5034894;28;20044;-70
2022/05/14 09:44:49;;;;;;;22.70;6.15;;;18.90;99.90;;;;;;5018292;28;20408;-70
2022/05/14 09:47:31;;;;;;;20.05;4.90;;;19.20;99.90;;;;;;5034776;28;20045;-69
2022/05/14 09:50:05;;;;;;;20.38;5.43;;;19.20;97.30;;;;;;5034756;28;20040;-70
2022/05/14 09:52:33;;;;;;;23.13;5.65;;;19.00;97.90;;;;;;5034962;28;20064;-69
2022/05/14 09:55:03;;;;;;;17.58;5.40;;;18.90;98.90;;;;;;5034781;28;20045;-70
2022/05/14 09:57:36;;;;;;;23.15;5.72;;;18.70;99.20;;;;;;5034557;28;20063;-70
2022/05/14 10:00:16;;;;;;;23.60;5.55;;;18.60;99.90;;;;;;5034596;28;20116;-70
2022/05/14 10:03:00;;;;;;;20.25;4.97;;;18.80;99.90;;;;;;5034407;28;20081;-70
2022/05/14 10:05:42;;;;;;;20.45;4.57;;;19.10;99.90;;;;;;5034181;28;20456;-70
2022/05/14 10:08:07;;;;;;;20.52;5.20;;;19.10;99.30;;;;;;5034689;28;20030;-70
2022/05/14 10:11:00;;;;;;;20.95;5.05;;;19.30;99.00;;;;;;5034605;28;20508;-69
2022/05/14 10:13:44;;;;;;;22.27;5.45;;;19.60;97.70;;;;;;5034392;28;20045;-69
2022/05/14 10:16:27;;;;;;;21.77;5.25;;;20.00;94.30;;;;;;5018174;28;20053;-69
2022/05/14 10:19:24;;;;;;;20.50;4.97;;;20.50;92.60;;;;;;5034217;28;20042;-69
2022/05/14 10:22:07;;;;;;;23.88;5.13;;;20.70;87.60;;;;;;5034170;28;20554;-71
2022/05/14 10:27:49;;;;;;;23.63;5.38;;;20.90;85.70;;;;;;5034007;28;20464;-69
2022/05/14 10:30:22;;;;;;;17.85;5.22;;;21.20;94.00;;;;;;5034000;28;20120;-69
2022/05/14 10:32:54;;;;;;;20.63;4.97;;;21.40;90.90;;;;;;5033970;28;20406;-70
2022/05/14 10:35:27;;;;;;;17.83;5.10;;;21.30;89.60;;;;;;5033898;28;20037;-69
2022/05/14 10:38:03;;;;;;;19.83;5.43;;;21.10;74.00;;;;;;5034146;28;20049;-70
2022/05/14 10:40:53;;;;;;;21.27;5.47;;;20.70;73.30;;;;;;5034038;28;20132;-69
2022/05/14 10:43:45;;;;;;;21.08;5.28;;;20.60;75.40;;;;;;5033687;28;20049;-69
2022/05/14 10:46:17;;;;;;;18.67;5.00;;;20.50;83.00;;;;;;5033859;28;20060;-70
2022/05/14 10:49:05;;;;;;;22.90;6.20;;;20.60;85.70;;;;;;5032669;28;20087;-70
2022/05/14 10:51:45;;;;;;;26.63;5.50;;;21.00;77.10;;;;;;5034912;28;20033;-70
2022/05/14 10:54:20;;;;;;;21.85;5.03;;;21.10;85.80;;;;;;5033561;28;20119;-70
2022/05/14 10:56:56;;;;;;;21.05;5.07;;;21.30;80.40;;;;;;5033481;28;20568;-70
2022/05/14 10:59:34;;;;;;;21.23;5.13;;;21.50;70.00;;;;;;5033418;28;20037;-70
2022/05/14 11:02:06;;;;;;;20.88;5.03;;;21.80;65.90;;;;;;5033466;28;20046;-70
2022/05/14 11:04:47;;;;;;;17.98;4.85;;;22.00;75.70;;;;;;5033449;28;20041;-70
2022/05/14 11:07:37;;;;;;;19.45;4.57;;;22.40;58.20;;;;;;5033364;28;20087;-69
2022/05/14 11:10:14;;;;;;;19.98;4.93;;;22.70;61.00;;;;;;5033582;28;20485;-69
2022/05/14 11:12:41;;;;;;;17.40;5.07;;;22.90;59.50;;;;;;5033472;28;20080;-69
2022/05/14 11:15:24;;;;;;;14.95;4.47;;;23.00;59.20;;;;;;5033363;28;20042;-69
2022/05/14 11:18:05;;;;;;;22.58;4.82;;;22.80;55.30;;;;;;5033139;28;20088;-69
2022/05/14 11:20:31;;;;;;;18.65;5.18;;;22.40;57.10;;;;;;5033115;28;20136;-70
2022/05/14 11:23:11;;;;;;;26.13;5.20;;;22.40;60.50;;;;;;5032913;28;20138;-70
2022/05/14 11:25:38;;;;;;;18.73;5.10;;;22.70;58.70;;;;;;5032876;28;20042;-69
2022/05/14 11:28:18;;;;;;;18.05;5.05;;;22.80;60.00;;;;;;5032989;28;20520;-70
2022/05/14 11:30:47;;;;;;;16.08;4.43;;;23.10;60.40;;;;;;5032876;28;20038;-70
2022/05/14 11:33:28;;;;;;;20.67;5.13;;;23.50;58.10;;;;;;5032688;28;20517;-69
2022/05/14 11:35:58;;;;;;;19.15;4.75;;;23.50;54.60;;;;;;5032809;28;20045;-70
2022/05/14 11:38:24;;;;;;;19.08;4.70;;;23.00;54.60;;;;;;5033001;28;20057;-70
2022/05/14 11:40:59;;;;;;;21.15;5.00;;;22.70;56.00;;;;;;5032644;28;20045;-70
2022/05/14 11:43:31;;;;;;;22.95;5.70;;;22.50;57.90;;;;;;5032532;28;20515;-71
2022/05/14 11:46:11;;;;;;;23.20;5.30;;;22.30;57.00;;;;;;5032493;28;20413;-71
2022/05/14 11:49:07;;;;;;;19.83;5.20;;;22.10;56.30;;;;;;5032792;28;20359;-70
2022/05/14 11:52:01;;;;;;;16.23;5.03;;;22.10;56.90;;;;;;5032701;28;20098;-70
2022/05/14 11:54:30;;;;;;;20.20;5.30;;;22.50;56.90;;;;;;5032402;28;20490;-71
2022/05/14 11:57:00;;;;;;;58.78;5.68;;;22.70;57.00;;;;;;5032542;28;20497;-71
2022/05/14 11:59:41;;;;;;;18.95;5.03;;;22.90;56.00;;;;;;5032481;28;20448;-71
2022/05/14 12:02:16;;;;;;;18.45;5.35;;;23.00;58.30;;;;;;5032264;28;20041;-71
2022/05/14 12:04:44;;;;;;;18.95;4.68;;;23.30;58.60;;;;;;5033572;28;20080;-71
2022/05/14 12:07:24;;;;;;;17.90;4.72;;;23.40;57.00;;;;;;5032501;28;20041;-71
2022/05/14 12:10:19;;;;;;;21.58;5.30;;;23.20;55.10;;;;;;5032238;28;20079;-71
2022/05/14 12:13:07;;;;;;;21.15;4.97;;;22.80;54.40;;;;;;5032119;28;20038;-71
2022/05/14 12:15:33;;;;;;;20.67;5.15;;;22.60;55.90;;;;;;5015575;28;20037;-71
2022/05/14 12:18:00;;;;;;;20.13;5.57;;;22.70;55.40;;;;;;5032077;28;20561;-71
2022/05/14 12:20:34;;;;;;;16.90;4.97;;;22.60;54.90;;;;;;5031699;28;20048;-70
2022/05/14 12:23:03;;;;;;;20.92;5.80;;;22.70;55.10;;;;;;5031380;28;20045;-71
2022/05/14 12:25:40;;;;;;;20.77;5.63;;;22.90;55.50;;;;;;5015450;28;20497;-71
2022/05/14 12:28:16;;;;;;;18.63;5.43;;;23.20;56.30;;;;;;5015502;28;20041;-71
2022/05/14 12:33:35;;;;;;;19.52;5.07;;;23.90;55.60;;;;;;5031922;28;20045;-70
2022/05/14 12:36:01;;;;;;;20.27;5.55;;;23.90;54.30;;;;;;5032043;28;20052;-70
2022/05/14 12:38:35;;;;;;;15.88;4.95;;;23.60;53.80;;;;;;5015500;28;20559;-70
2022/05/14 12:41:03;;;;;;;22.08;5.13;;;23.30;53.00;;;;;;5031777;28;20080;-71
2022/05/14 12:43:29;;;;;;;21.75;5.55;;;23.10;54.00;;;;;;5031651;28;20504;-71
2022/05/14 12:46:06;;;;;;;18.92;5.60;;;22.80;54.90;;;;;;5031656;28;20382;-71
2022/05/14 12:48:45;;;;;;;18.98;4.90;;;22.80;55.20;;;;;;5031756;28;20037;-70
2022/05/14 12:51:21;;;;;;;23.25;4.93;;;22.80;55.30;;;;;;5031835;28;20076;-71
2022/05/14 12:53:47;;;;;;;20.40;4.78;;;23.00;55.20;;;;;;5031710;28;20081;-71
2022/05/14 12:56:15;;;;;;;17.67;4.95;;;23.10;55.00;;;;;;5031682;28;20096;-71
2022/05/14 12:58:42;;;;;;;19.52;5.93;;;23.10;53.70;;;;;;5031654;28;20394;-71
2022/05/14 13:01:10;;;;;;;23.70;5.60;;;22.90;54.00;;;;;;5031612;28;20049;-71
2022/05/14 13:03:59;;;;;;;21.00;5.38;;;22.80;54.40;;;;;;5032935;28;20049;-71
2022/05/14 13:06:32;;;;;;;19.50;5.38;;;22.70;54.30;;;;;;5031576;28;20049;-70
2022/05/14 13:09:07;;;;;;;18.75;5.50;;;22.70;55.30;;;;;;5015716;28;20088;-70
2022/05/14 13:11:35;;;;;;;21.25;5.93;;;22.60;54.70;;;;;;5032470;28;20406;-71